sensor_id;sensor_type;location;lat;lon;timestamp;P1;durP1;ratioP1;P2;durP2;ratioP2
53753;SDS011;39667;52.274;20.964;2022-08-19T00:00:31;11.80;;;7.10;;
53753;SDS011;39667;52.274;20.964;2022-08-19T00:02:58;10.50;;;6.80;;
53753;SDS011;39667;52.274;20.964;2022-08-19T00:05:25;7.90;;;7.10;;
53753;SDS011;39667;52.274;20.964;2022-08-19T00:07:52;8.50;;;6.20;;
53753;SDS011;39667;52.274;20.964;2022-08-19T00:10:19;11.10;;;6.50;;
53753;SDS011;39667;52.274;20.964;2022-08-19T00:12:46;12.50;;;6.90;;
53753;SDS011;39667;52.274;20.964;2022-08-19T00:15:15;9.50;;;7.30;;
53753;SDS011;39667;52.274;20.964;2022-08-19T00:17:45;13.20;;;7.20;;
53753;SDS011;39667;52.274;20.964;2022-08-19T00:20:14;10.00;;;7.30;;
53753;SDS011;39667;52.274;20.964;2022-08-19T00:22:44;9.50;;;7.20;;
53753;SDS011;39667;52.274;20.964;2022-08-19T00:25:12;10.50;;;7.40;;
53753;SDS011;39667;52.274;20.964;2022-08-19T00:27:41;8.40;;;7.20;;
53753;SDS011;39667;52.274;20.964;2022-08-19T00:30:08;10.20;;;7.20;;
53753;SDS011;39667;52.274;20.964;2022-08-19T00:32:36;8.30;;;7.30;;
53753;SDS011;39667;52.274;20.964;2022-08-19T00:35:05;9.00;;;7.00;;
53753;SDS011;39667;52.274;20.964;2022-08-19T00:37:32;8.40;;;7.10;;
53753;SDS011;39667;52.274;20.964;2022-08-19T00:40:01;11.20;;;7.20;;
53753;SDS011;39667;52.274;20.964;2022-08-19T00:42:31;9.60;;;7.30;;
53753;SDS011;39667;52.274;20.964;2022-08-19T00:44:58;12.70;;;7.30;;
53753;SDS011;39667;52.274;20.964;2022-08-19T00:47:25;9.40;;;7.40;;
53753;SDS011;39667;52.274;20.964;2022-08-19T00:49:54;14.10;;;7.60;;
53753;SDS011;39667;52.274;20.964;2022-08-19T00:52:24;10.10;;;7.70;;
53753;SDS011;39667;52.274;20.964;2022-08-19T00:55:03;7.90;;;6.70;;
53753;SDS011;39667;52.274;20.964;2022-08-19T00:57:35;10.10;;;7.30;;
53753;SDS011;39667;52.274;20.964;2022-08-19T01:00:07;9.90;;;7.90;;
53753;SDS011;39667;52.274;20.964;2022-08-19T01:02:38;10.80;;;8.40;;
53753;SDS011;39667;52.274;20.964;2022-08-19T01:05:08;9.00;;;7.60;;
53753;SDS011;39667;52.274;20.964;2022-08-19T01:07:38;11.30;;;8.30;;
53753;SDS011;39667;52.274;20.964;2022-08-19T01:10:14;13.10;;;8.70;;
53753;SDS011;39667;52.274;20.964;2022-08-19T01:12:48;8.90;;;8.00;;
53753;SDS011;39667;52.274;20.964;2022-08-19T01:15:17;11.20;;;8.40;;
53753;SDS011;39667;52.274;20.964;2022-08-19T01:17:47;9.60;;;8.20;;
53753;SDS011;39667;52.274;20.964;2022-08-19T01:20:17;8.60;;;7.80;;
53753;SDS011;39667;52.274;20.964;2022-08-19T01:22:47;10.20;;;8.30;;
53753;SDS011;39667;52.274;20.964;2022-08-19T01:25:15;12.30;;;8.80;;
53753;SDS011;39667;52.274;20.964;2022-08-19T01:27:46;14.80;;;8.70;;
53753;SDS011;39667;52.274;20.964;2022-08-19T01:30:23;9.70;;;7.70;;
53753;SDS011;39667;52.274;20.964;2022-08-19T01:32:53;8.70;;;7.40;;
53753;SDS011;39667;52.274;20.964;2022-08-19T01:35:22;11.40;;;7.70;;
53753;SDS011;39667;52.274;20.964;2022-08-19T01:38:01;10.00;;;8.00;;
53753;SDS011;39667;52.274;20.964;2022-08-19T01:40:35;10.40;;;8.30;;
53753;SDS011;39667;52.274;20.964;2022-08-19T01:43:05;10.10;;;8.10;;
53753;SDS011;39667;52.274;20.964;2022-08-19T01:45:32;9.00;;;8.00;;
53753;SDS011;39667;52.274;20.964;2022-08-19T01:48:01;13.50;;;8.20;;
53753;SDS011;39667;52.274;20.964;2022-08-19T01:50:30;9.00;;;7.90;;
53753;SDS011;39667;52.274;20.964;2022-08-19T01:52:57;10.90;;;8.30;;
53753;SDS011;39667;52.274;20.964;2022-08-19T01:55:33;9.70;;;8.20;;
53753;SDS011;39667;52.274;20.964;2022-08-19T01:58:08;9.30;;;8.50;;
53753;SDS011;39667;52.274;20.964;2022-08-19T02:00:38;11.30;;;8.60;;
53753;SDS011;39667;52.274;20.964;2022-08-19T02:03:06;9.70;;;7.50;;
53753;SDS011;39667;52.274;20.964;2022-08-19T02:05:33;8.40;;;7.60;;
53753;SDS011;39667;52.274;20.964;2022-08-19T02:07:59;8.90;;;7.80;;
53753;SDS011;39667;52.274;20.964;2022-08-19T02:10:26;9.90;;;8.20;;
53753;SDS011;39667;52.274;20.964;2022-08-19T02:12:53;11.70;;;8.10;;
53753;SDS011;39667;52.274;20.964;2022-08-19T02:15:21;9.40;;;7.60;;
53753;SDS011;39667;52.274;20.964;2022-08-19T02:17:48;10.30;;;8.00;;
53753;SDS011;39667;52.274;20.964;2022-08-19T02:20:15;10.00;;;8.60;;
53753;SDS011;39667;52.274;20.964;2022-08-19T02:22:43;8.30;;;7.50;;
53753;SDS011;39667;52.274;20.964;2022-08-19T02:25:11;12.50;;;8.50;;
53753;SDS011;39667;52.274;20.964;2022-08-19T02:27:41;9.40;;;8.00;;
53753;SDS011;39667;52.274;20.964;2022-08-19T02:30:10;10.90;;;8.00;;
53753;SDS011;39667;52.274;20.964;2022-08-19T02:32:39;9.60;;;8.60;;
53753;SDS011;39667;52.274;20.964;2022-08-19T02:35:10;9.20;;;8.30;;
53753;SDS011;39667;52.274;20.964;2022-08-19T02:37:38;11.90;;;8.20;;
53753;SDS011;39667;52.274;20.964;2022-08-19T02:40:25;12.80;;;8.80;;
53753;SDS011;39667;52.274;20.964;2022-08-19T02:42:53;10.80;;;8.70;;
53753;SDS011;39667;52.274;20.964;2022-08-19T02:45:20;10.20;;;8.20;;
53753;SDS011;39667;52.274;20.964;2022-08-19T02:47:48;10.50;;;8.30;;
53753;SDS011;39667;52.274;20.964;2022-08-19T02:50:15;12.10;;;8.40;;
53753;SDS011;39667;52.274;20.964;2022-08-19T02:52:41;9.70;;;8.60;;
53753;SDS011;39667;52.274;20.964;2022-08-19T02:55:08;9.80;;;7.90;;
53753;SDS011;39667;52.274;20.964;2022-08-19T02:57:35;10.70;;;8.40;;
53753;SDS011;39667;52.274;20.964;2022-08-19T03:00:04;11.20;;;8.00;;
53753;SDS011;39667;52.274;20.964;2022-08-19T03:02:33;10.30;;;8.20;;
53753;SDS011;39667;52.274;20.964;2022-08-19T03:05:02;12.80;;;8.90;;
53753;SDS011;39667;52.274;20.964;2022-08-19T03:07:29;11.40;;;8.80;;
53753;SDS011;39667;52.274;20.964;2022-08-19T03:09:56;14.80;;;8.30;;
53753;SDS011;39667;52.274;20.964;2022-08-19T03:12:24;12.30;;;8.70;;
53753;SDS011;39667;52.274;20.964;2022-08-19T03:14:51;11.70;;;8.90;;
53753;SDS011;39667;52.274;20.964;2022-08-19T03:17:19;11.10;;;8.20;;
53753;SDS011;39667;52.274;20.964;2022-08-19T03:19:46;13.50;;;9.10;;
53753;SDS011;39667;52.274;20.964;2022-08-19T03:22:13;8.60;;;7.70;;
53753;SDS011;39667;52.274;20.964;2022-08-19T03:24:40;9.20;;;8.10;;
53753;SDS011;39667;52.274;20.964;2022-08-19T03:27:07;8.80;;;8.00;;
53753;SDS011;39667;52.274;20.964;2022-08-19T03:29:33;10.40;;;8.70;;
53753;SDS011;39667;52.274;20.964;2022-08-19T03:32:09;10.30;;;9.30;;
53753;SDS011;39667;52.274;20.964;2022-08-19T03:34:56;11.80;;;8.50;;
53753;SDS011;39667;52.274;20.964;2022-08-19T03:37:23;13.00;;;8.60;;
53753;SDS011;39667;52.274;20.964;2022-08-19T03:39:51;9.40;;;7.60;;
53753;SDS011;39667;52.274;20.964;2022-08-19T03:42:18;14.20;;;8.30;;
53753;SDS011;39667;52.274;20.964;2022-08-19T03:45:05;16.30;;;8.80;;
53753;SDS011;39667;52.274;20.964;2022-08-19T03:47:33;11.40;;;9.20;;
53753;SDS011;39667;52.274;20.964;2022-08-19T03:50:00;9.60;;;7.90;;
53753;SDS011;39667;52.274;20.964;2022-08-19T03:52:27;9.80;;;8.20;;
53753;SDS011;39667;52.274;20.964;2022-08-19T03:54:54;12.10;;;9.20;;
53753;SDS011;39667;52.274;20.964;2022-08-19T03:57:21;11.50;;;9.30;;
53753;SDS011;39667;52.274;20.964;2022-08-19T03:59:57;12.90;;;8.70;;
53753;SDS011;39667;52.274;20.964;2022-08-19T04:02:38;9.70;;;8.10;;
53753;SDS011;39667;52.274;20.964;2022-08-19T04:05:05;12.00;;;9.10;;
53753;SDS011;39667;52.274;20.964;2022-08-19T04:07:34;12.60;;;9.20;;
53753;SDS011;39667;52.274;20.964;2022-08-19T04:10:02;18.20;;;8.70;;
53753;SDS011;39667;52.274;20.964;2022-08-19T04:12:29;15.10;;;8.20;;
53753;SDS011;39667;52.274;20.964;2022-08-19T04:14:57;11.60;;;9.10;;
53753;SDS011;39667;52.274;20.964;2022-08-19T04:17:24;10.00;;;8.90;;
53753;SDS011;39667;52.274;20.964;2022-08-19T04:19:52;14.50;;;8.60;;
53753;SDS011;39667;52.274;20.964;2022-08-19T04:22:18;11.80;;;9.00;;
53753;SDS011;39667;52.274;20.964;2022-08-19T04:24:45;10.20;;;8.50;;
53753;SDS011;39667;52.274;20.964;2022-08-19T04:27:12;9.20;;;8.30;;
53753;SDS011;39667;52.274;20.964;2022-08-19T04:29:39;14.30;;;8.90;;
53753;SDS011;39667;52.274;20.964;2022-08-19T04:32:06;12.50;;;8.80;;
53753;SDS011;39667;52.274;20.964;2022-08-19T04:34:34;13.10;;;8.40;;
53753;SDS011;39667;52.274;20.964;2022-08-19T04:37:00;11.00;;;9.10;;
53753;SDS011;39667;52.274;20.964;2022-08-19T04:39:29;10.80;;;9.00;;
53753;SDS011;39667;52.274;20.964;2022-08-19T04:42:16;11.00;;;9.00;;
53753;SDS011;39667;52.274;20.964;2022-08-19T04:45:04;12.20;;;9.20;;
53753;SDS011;39667;52.274;20.964;2022-08-19T04:47:38;12.40;;;9.70;;
53753;SDS011;39667;52.274;20.964;2022-08-19T04:50:23;10.50;;;9.00;;
53753;SDS011;39667;52.274;20.964;2022-08-19T04:52:51;9.60;;;8.50;;
53753;SDS011;39667;52.274;20.964;2022-08-19T04:55:18;12.00;;;9.10;;
53753;SDS011;39667;52.274;20.964;2022-08-19T04:57:45;9.90;;;8.90;;
53753;SDS011;39667;52.274;20.964;2022-08-19T05:00:12;9.70;;;8.40;;
53753;SDS011;39667;52.274;20.964;2022-08-19T05:02:39;9.40;;;8.10;;
53753;SDS011;39667;52.274;20.964;2022-08-19T05:05:06;12.90;;;9.00;;
53753;SDS011;39667;52.274;20.964;2022-08-19T05:07:34;14.00;;;8.90;;
53753;SDS011;39667;52.274;20.964;2022-08-19T05:10:03;11.90;;;8.30;;
53753;SDS011;39667;52.274;20.964;2022-08-19T05:12:31;11.40;;;8.90;;
53753;SDS011;39667;52.274;20.964;2022-08-19T05:14:58;11.20;;;7.90;;
53753;SDS011;39667;52.274;20.964;2022-08-19T05:17:27;13.00;;;8.20;;
53753;SDS011;39667;52.274;20.964;2022-08-19T05:20:00;12.10;;;8.50;;
53753;SDS011;39667;52.274;20.964;2022-08-19T05:22:46;11.70;;;8.40;;
53753;SDS011;39667;52.274;20.964;2022-08-19T05:25:17;9.90;;;8.50;;
53753;SDS011;39667;52.274;20.964;2022-08-19T05:27:46;12.80;;;7.70;;
53753;SDS011;39667;52.274;20.964;2022-08-19T05:30:15;9.10;;;8.00;;
53753;SDS011;39667;52.274;20.964;2022-08-19T05:32:43;10.50;;;8.40;;
53753;SDS011;39667;52.274;20.964;2022-08-19T05:35:11;14.80;;;8.90;;
53753;SDS011;39667;52.274;20.964;2022-08-19T05:37:38;11.50;;;8.10;;
53753;SDS011;39667;52.274;20.964;2022-08-19T05:40:09;13.30;;;8.00;;
53753;SDS011;39667;52.274;20.964;2022-08-19T05:42:37;12.50;;;7.60;;
53753;SDS011;39667;52.274;20.964;2022-08-19T05:45:04;11.90;;;7.50;;
53753;SDS011;39667;52.274;20.964;2022-08-19T05:47:31;11.80;;;7.80;;
53753;SDS011;39667;52.274;20.964;2022-08-19T05:49:58;9.50;;;8.20;;
53753;SDS011;39667;52.274;20.964;2022-08-19T05:52:25;13.50;;;8.00;;
53753;SDS011;39667;52.274;20.964;2022-08-19T05:54:53;12.40;;;8.10;;
53753;SDS011;39667;52.274;20.964;2022-08-19T05:57:23;9.00;;;7.70;;
53753;SDS011;39667;52.274;20.964;2022-08-19T05:59:51;12.40;;;7.10;;
53753;SDS011;39667;52.274;20.964;2022-08-19T06:02:25;11.70;;;7.60;;
53753;SDS011;39667;52.274;20.964;2022-08-19T06:04:55;13.80;;;7.90;;
53753;SDS011;39667;52.274;20.964;2022-08-19T06:07:22;10.90;;;7.60;;
53753;SDS011;39667;52.274;20.964;2022-08-19T06:09:49;13.20;;;7.50;;
53753;SDS011;39667;52.274;20.964;2022-08-19T06:12:30;9.10;;;7.30;;
53753;SDS011;39667;52.274;20.964;2022-08-19T06:15:05;11.40;;;7.40;;
53753;SDS011;39667;52.274;20.964;2022-08-19T06:17:37;10.10;;;7.90;;
53753;SDS011;39667;52.274;20.964;2022-08-19T06:20:05;11.70;;;7.70;;
53753;SDS011;39667;52.274;20.964;2022-08-19T06:22:42;9.40;;;7.60;;
53753;SDS011;39667;52.274;20.964;2022-08-19T06:25:11;9.20;;;7.50;;
53753;SDS011;39667;52.274;20.964;2022-08-19T06:27:40;12.90;;;8.50;;
53753;SDS011;39667;52.274;20.964;2022-08-19T06:30:27;12.10;;;7.50;;
53753;SDS011;39667;52.274;20.964;2022-08-19T06:32:54;9.20;;;6.90;;
53753;SDS011;39667;52.274;20.964;2022-08-19T06:35:21;12.80;;;7.10;;
53753;SDS011;39667;52.274;20.964;2022-08-19T06:37:48;9.70;;;7.20;;
53753;SDS011;39667;52.274;20.964;2022-08-19T06:40:15;11.50;;;7.80;;
53753;SDS011;39667;52.274;20.964;2022-08-19T06:42:42;13.10;;;8.20;;
53753;SDS011;39667;52.274;20.964;2022-08-19T06:45:20;8.00;;;7.20;;
53753;SDS011;39667;52.274;20.964;2022-08-19T06:47:51;15.20;;;7.30;;
53753;SDS011;39667;52.274;20.964;2022-08-19T06:50:22;9.70;;;7.20;;
53753;SDS011;39667;52.274;20.964;2022-08-19T06:52:50;11.40;;;7.10;;
53753;SDS011;39667;52.274;20.964;2022-08-19T06:55:18;11.30;;;7.80;;
53753;SDS011;39667;52.274;20.964;2022-08-19T06:57:45;8.90;;;6.80;;
53753;SDS011;39667;52.274;20.964;2022-08-19T07:00:12;9.90;;;6.80;;
53753;SDS011;39667;52.274;20.964;2022-08-19T07:02:41;9.50;;;7.20;;
53753;SDS011;39667;52.274;20.964;2022-08-19T07:05:18;9.70;;;6.60;;
53753;SDS011;39667;52.274;20.964;2022-08-19T07:07:45;9.90;;;6.80;;
53753;SDS011;39667;52.274;20.964;2022-08-19T07:10:13;12.80;;;7.50;;
53753;SDS011;39667;52.274;20.964;2022-08-19T07:12:40;11.30;;;7.30;;
53753;SDS011;39667;52.274;20.964;2022-08-19T07:15:07;11.30;;;7.20;;
53753;SDS011;39667;52.274;20.964;2022-08-19T07:17:37;10.50;;;8.60;;
53753;SDS011;39667;52.274;20.964;2022-08-19T07:20:07;10.60;;;8.20;;
53753;SDS011;39667;52.274;20.964;2022-08-19T07:22:39;7.30;;;6.60;;
53753;SDS011;39667;52.274;20.964;2022-08-19T07:25:07;8.40;;;7.10;;
53753;SDS011;39667;52.274;20.964;2022-08-19T07:27:35;10.40;;;6.70;;
53753;SDS011;39667;52.274;20.964;2022-08-19T07:30:05;9.70;;;6.70;;
53753;SDS011;39667;52.274;20.964;2022-08-19T07:32:37;11.80;;;7.30;;
53753;SDS011;39667;52.274;20.964;2022-08-19T07:35:05;8.70;;;6.70;;
53753;SDS011;39667;52.274;20.964;2022-08-19T07:37:33;14.00;;;7.90;;
53753;SDS011;39667;52.274;20.964;2022-08-19T07:40:03;11.10;;;6.90;;
53753;SDS011;39667;52.274;20.964;2022-08-19T07:42:32;9.80;;;7.30;;
53753;SDS011;39667;52.274;20.964;2022-08-19T07:44:59;9.80;;;7.10;;
53753;SDS011;39667;52.274;20.964;2022-08-19T07:47:26;10.50;;;6.70;;
53753;SDS011;39667;52.274;20.964;2022-08-19T07:50:13;12.00;;;7.40;;
53753;SDS011;39667;52.274;20.964;2022-08-19T07:52:41;9.80;;;7.10;;
53753;SDS011;39667;52.274;20.964;2022-08-19T07:55:15;10.30;;;7.10;;
53753;SDS011;39667;52.274;20.964;2022-08-19T07:58:05;12.00;;;6.70;;
53753;SDS011;39667;52.274;20.964;2022-08-19T08:00:32;11.60;;;7.30;;
53753;SDS011;39667;52.274;20.964;2022-08-19T08:02:59;11.80;;;7.40;;
53753;SDS011;39667;52.274;20.964;2022-08-19T08:05:25;10.00;;;6.80;;
53753;SDS011;39667;52.274;20.964;2022-08-19T08:08:12;8.80;;;6.90;;
53753;SDS011;39667;52.274;20.964;2022-08-19T08:11:13;10.70;;;7.30;;
53753;SDS011;39667;52.274;20.964;2022-08-19T08:13:41;11.00;;;7.40;;
53753;SDS011;39667;52.274;20.964;2022-08-19T08:16:08;13.10;;;7.40;;
53753;SDS011;39667;52.274;20.964;2022-08-19T08:18:39;9.80;;;7.90;;
53753;SDS011;39667;52.274;20.964;2022-08-19T08:21:18;9.10;;;7.20;;
53753;SDS011;39667;52.274;20.964;2022-08-19T08:23:45;8.80;;;7.10;;
53753;SDS011;39667;52.274;20.964;2022-08-19T08:26:12;8.30;;;6.60;;
53753;SDS011;39667;52.274;20.964;2022-08-19T08:28:41;15.10;;;8.50;;
53753;SDS011;39667;52.274;20.964;2022-08-19T08:31:14;8.00;;;7.20;;
53753;SDS011;39667;52.274;20.964;2022-08-19T08:33:41;13.30;;;7.70;;
53753;SDS011;39667;52.274;20.964;2022-08-19T08:36:08;8.10;;;7.20;;
53753;SDS011;39667;52.274;20.964;2022-08-19T08:38:37;10.60;;;9.60;;
53753;SDS011;39667;52.274;20.964;2022-08-19T08:41:24;12.00;;;7.60;;
53753;SDS011;39667;52.274;20.964;2022-08-19T08:43:54;9.80;;;6.90;;
53753;SDS011;39667;52.274;20.964;2022-08-19T08:46:25;7.80;;;6.70;;
53753;SDS011;39667;52.274;20.964;2022-08-19T08:49:15;7.70;;;6.90;;
53753;SDS011;39667;52.274;20.964;2022-08-19T08:52:06;9.20;;;6.40;;
53753;SDS011;39667;52.274;20.964;2022-08-19T08:54:42;8.20;;;6.50;;
53753;SDS011;39667;52.274;20.964;2022-08-19T09:00:07;8.70;;;7.40;;
53753;SDS011;39667;52.274;20.964;2022-08-19T09:02:41;10.80;;;6.50;;
53753;SDS011;39667;52.274;20.964;2022-08-19T09:05:09;7.70;;;6.60;;
53753;SDS011;39667;52.274;20.964;2022-08-19T09:15:36;10.80;;;6.70;;
53753;SDS011;39667;52.274;20.964;2022-08-19T09:18:13;9.80;;;6.60;;
53753;SDS011;39667;52.274;20.964;2022-08-19T09:20:45;8.50;;;6.50;;
53753;SDS011;39667;52.274;20.964;2022-08-19T09:23:14;7.80;;;6.20;;
53753;SDS011;39667;52.274;20.964;2022-08-19T09:25:41;7.10;;;6.40;;
53753;SDS011;39667;52.274;20.964;2022-08-19T09:28:08;7.70;;;6.10;;
53753;SDS011;39667;52.274;20.964;2022-08-19T09:30:48;14.00;;;7.30;;
53753;SDS011;39667;52.274;20.964;2022-08-19T09:33:18;9.60;;;6.60;;
53753;SDS011;39667;52.274;20.964;2022-08-19T09:35:46;10.20;;;6.60;;
53753;SDS011;39667;52.274;20.964;2022-08-19T09:38:19;15.60;;;7.00;;
53753;SDS011;39667;52.274;20.964;2022-08-19T09:40:47;11.70;;;6.70;;
53753;SDS011;39667;52.274;20.964;2022-08-19T09:43:14;10.30;;;6.90;;
53753;SDS011;39667;52.274;20.964;2022-08-19T09:45:58;7.00;;;5.70;;
53753;SDS011;39667;52.274;20.964;2022-08-19T09:48:26;13.60;;;6.10;;
53753;SDS011;39667;52.274;20.964;2022-08-19T09:50:53;8.30;;;5.70;;
53753;SDS011;39667;52.274;20.964;2022-08-19T09:53:20;11.60;;;6.00;;
53753;SDS011;39667;52.274;20.964;2022-08-19T09:55:51;8.70;;;5.70;;
53753;SDS011;39667;52.274;20.964;2022-08-19T09:58:19;7.60;;;5.50;;
53753;SDS011;39667;52.274;20.964;2022-08-19T10:00:51;8.10;;;5.50;;
53753;SDS011;39667;52.274;20.964;2022-08-19T10:03:20;10.80;;;5.40;;
53753;SDS011;39667;52.274;20.964;2022-08-19T10:08:25;6.50;;;5.10;;
53753;SDS011;39667;52.274;20.964;2022-08-19T10:10:54;6.80;;;5.60;;
53753;SDS011;39667;52.274;20.964;2022-08-19T10:13:25;8.40;;;6.10;;
53753;SDS011;39667;52.274;20.964;2022-08-19T10:15:55;8.70;;;5.90;;
53753;SDS011;39667;52.274;20.964;2022-08-19T10:21:07;10.30;;;5.60;;
53753;SDS011;39667;52.274;20.964;2022-08-19T10:23:41;6.30;;;4.90;;
53753;SDS011;39667;52.274;20.964;2022-08-19T10:26:13;6.50;;;5.40;;
53753;SDS011;39667;52.274;20.964;2022-08-19T10:28:44;8.80;;;5.60;;
53753;SDS011;39667;52.274;20.964;2022-08-19T10:31:13;11.70;;;5.60;;
53753;SDS011;39667;52.274;20.964;2022-08-19T10:34:06;10.30;;;5.20;;
53753;SDS011;39667;52.274;20.964;2022-08-19T10:36:37;6.60;;;5.20;;
53753;SDS011;39667;52.274;20.964;2022-08-19T10:39:25;8.00;;;5.50;;
53753;SDS011;39667;52.274;20.964;2022-08-19T10:41:56;6.50;;;5.30;;
53753;SDS011;39667;52.274;20.964;2022-08-19T10:44:23;6.40;;;5.40;;
53753;SDS011;39667;52.274;20.964;2022-08-19T10:46:57;8.70;;;5.30;;
53753;SDS011;39667;52.274;20.964;2022-08-19T10:49:25;5.90;;;5.00;;
53753;SDS011;39667;52.274;20.964;2022-08-19T10:51:54;9.20;;;5.40;;
53753;SDS011;39667;52.274;20.964;2022-08-19T10:54:46;9.60;;;5.30;;
53753;SDS011;39667;52.274;20.964;2022-08-19T10:57:34;8.50;;;5.70;;
53753;SDS011;39667;52.274;20.964;2022-08-19T11:00:21;8.60;;;5.20;;
53753;SDS011;39667;52.274;20.964;2022-08-19T11:02:49;9.60;;;5.50;;
53753;SDS011;39667;52.274;20.964;2022-08-19T11:05:17;8.10;;;5.50;;
53753;SDS011;39667;52.274;20.964;2022-08-19T11:07:44;10.60;;;5.50;;
53753;SDS011;39667;52.274;20.964;2022-08-19T11:10:13;7.40;;;4.80;;
53753;SDS011;39667;52.274;20.964;2022-08-19T11:12:46;8.90;;;4.90;;
53753;SDS011;39667;52.274;20.964;2022-08-19T11:15:13;9.20;;;4.70;;
53753;SDS011;39667;52.274;20.964;2022-08-19T11:17:40;7.80;;;4.70;;
53753;SDS011;39667;52.274;20.964;2022-08-19T11:20:10;11.20;;;5.10;;
53753;SDS011;39667;52.274;20.964;2022-08-19T11:22:39;5.80;;;4.50;;
53753;SDS011;39667;52.274;20.964;2022-08-19T11:25:08;8.30;;;4.60;;
53753;SDS011;39667;52.274;20.964;2022-08-19T11:27:38;5.30;;;4.80;;
53753;SDS011;39667;52.274;20.964;2022-08-19T11:30:11;9.90;;;4.80;;
53753;SDS011;39667;52.274;20.964;2022-08-19T11:32:40;7.10;;;5.20;;
53753;SDS011;39667;52.274;20.964;2022-08-19T11:35:14;9.50;;;5.20;;
53753;SDS011;39667;52.274;20.964;2022-08-19T11:37:42;9.80;;;5.00;;
53753;SDS011;39667;52.274;20.964;2022-08-19T11:40:09;8.50;;;4.70;;
53753;SDS011;39667;52.274;20.964;2022-08-19T11:42:36;9.90;;;5.30;;
53753;SDS011;39667;52.274;20.964;2022-08-19T11:45:27;6.80;;;4.60;;
53753;SDS011;39667;52.274;20.964;2022-08-19T11:47:55;7.80;;;5.20;;
53753;SDS011;39667;52.274;20.964;2022-08-19T11:50:23;9.20;;;5.20;;
53753;SDS011;39667;52.274;20.964;2022-08-19T11:52:53;14.00;;;4.90;;
53753;SDS011;39667;52.274;20.964;2022-08-19T11:55:22;8.90;;;4.70;;
53753;SDS011;39667;52.274;20.964;2022-08-19T11:57:49;11.50;;;5.30;;
53753;SDS011;39667;52.274;20.964;2022-08-19T12:00:16;6.10;;;4.80;;
53753;SDS011;39667;52.274;20.964;2022-08-19T12:02:43;8.60;;;5.00;;
53753;SDS011;39667;52.274;20.964;2022-08-19T12:05:09;7.10;;;5.30;;
53753;SDS011;39667;52.274;20.964;2022-08-19T12:07:38;10.70;;;4.80;;
53753;SDS011;39667;52.274;20.964;2022-08-19T12:10:07;15.60;;;5.30;;
53753;SDS011;39667;52.274;20.964;2022-08-19T12:12:37;7.70;;;4.80;;
53753;SDS011;39667;52.274;20.964;2022-08-19T12:15:10;5.70;;;4.50;;
53753;SDS011;39667;52.274;20.964;2022-08-19T12:17:38;6.70;;;4.60;;
53753;SDS011;39667;52.274;20.964;2022-08-19T12:20:05;7.00;;;4.50;;
53753;SDS011;39667;52.274;20.964;2022-08-19T12:22:35;7.30;;;4.40;;
53753;SDS011;39667;52.274;20.964;2022-08-19T12:25:03;5.10;;;4.60;;
53753;SDS011;39667;52.274;20.964;2022-08-19T12:27:32;6.40;;;5.00;;
53753;SDS011;39667;52.274;20.964;2022-08-19T12:30:07;9.10;;;4.20;;
53753;SDS011;39667;52.274;20.964;2022-08-19T12:32:38;9.80;;;4.60;;
53753;SDS011;39667;52.274;20.964;2022-08-19T12:35:06;7.00;;;5.10;;
53753;SDS011;39667;52.274;20.964;2022-08-19T12:37:35;9.20;;;5.20;;
53753;SDS011;39667;52.274;20.964;2022-08-19T12:40:02;7.90;;;4.60;;
53753;SDS011;39667;52.274;20.964;2022-08-19T12:42:30;6.90;;;4.60;;
53753;SDS011;39667;52.274;20.964;2022-08-19T12:44:57;10.60;;;4.80;;
53753;SDS011;39667;52.274;20.964;2022-08-19T12:47:24;7.40;;;4.90;;
53753;SDS011;39667;52.274;20.964;2022-08-19T12:49:52;9.00;;;4.50;;
53753;SDS011;39667;52.274;20.964;2022-08-19T12:52:25;6.20;;;4.60;;
53753;SDS011;39667;52.274;20.964;2022-08-19T12:54:54;9.90;;;4.90;;
53753;SDS011;39667;52.274;20.964;2022-08-19T12:57:24;10.80;;;4.60;;
53753;SDS011;39667;52.274;20.964;2022-08-19T12:59:59;8.40;;;4.60;;
53753;SDS011;39667;52.274;20.964;2022-08-19T13:02:31;6.40;;;4.60;;
53753;SDS011;39667;52.274;20.964;2022-08-19T13:05:05;8.50;;;4.90;;
53753;SDS011;39667;52.274;20.964;2022-08-19T13:07:35;9.40;;;7.60;;
53753;SDS011;39667;52.274;20.964;2022-08-19T13:10:04;7.20;;;4.30;;
53753;SDS011;39667;52.274;20.964;2022-08-19T13:12:33;9.10;;;4.40;;
53753;SDS011;39667;52.274;20.964;2022-08-19T13:15:00;7.10;;;4.90;;
53753;SDS011;39667;52.274;20.964;2022-08-19T13:17:36;10.10;;;4.50;;
53753;SDS011;39667;52.274;20.964;2022-08-19T13:20:03;9.30;;;4.30;;
53753;SDS011;39667;52.274;20.964;2022-08-19T13:22:32;7.60;;;4.30;;
53753;SDS011;39667;52.274;20.964;2022-08-19T13:25:00;5.70;;;4.10;;
53753;SDS011;39667;52.274;20.964;2022-08-19T13:27:26;4.90;;;4.30;;
53753;SDS011;39667;52.274;20.964;2022-08-19T13:29:53;7.90;;;4.70;;
53753;SDS011;39667;52.274;20.964;2022-08-19T13:32:39;10.80;;;4.30;;
53753;SDS011;39667;52.274;20.964;2022-08-19T13:35:24;7.70;;;4.30;;
53753;SDS011;39667;52.274;20.964;2022-08-19T13:37:51;10.90;;;5.00;;
53753;SDS011;39667;52.274;20.964;2022-08-19T13:40:19;8.20;;;4.50;;
53753;SDS011;39667;52.274;20.964;2022-08-19T13:42:51;8.80;;;5.10;;
53753;SDS011;39667;52.274;20.964;2022-08-19T13:45:22;6.60;;;4.30;;
53753;SDS011;39667;52.274;20.964;2022-08-19T13:47:51;5.30;;;4.60;;
53753;SDS011;39667;52.274;20.964;2022-08-19T13:50:26;5.40;;;4.50;;
53753;SDS011;39667;52.274;20.964;2022-08-19T13:52:57;7.50;;;4.10;;
53753;SDS011;39667;52.274;20.964;2022-08-19T13:55:24;6.40;;;4.50;;
53753;SDS011;39667;52.274;20.964;2022-08-19T13:57:56;6.10;;;4.30;;
53753;SDS011;39667;52.274;20.964;2022-08-19T14:00:25;7.40;;;4.00;;
53753;SDS011;39667;52.274;20.964;2022-08-19T14:02:54;7.10;;;4.10;;
53753;SDS011;39667;52.274;20.964;2022-08-19T14:05:22;8.90;;;4.60;;
53753;SDS011;39667;52.274;20.964;2022-08-19T14:07:51;10.10;;;4.50;;
53753;SDS011;39667;52.274;20.964;2022-08-19T14:10:19;6.60;;;4.00;;
53753;SDS011;39667;52.274;20.964;2022-08-19T14:12:47;9.10;;;4.10;;
53753;SDS011;39667;52.274;20.964;2022-08-19T14:15:14;11.70;;;5.20;;
53753;SDS011;39667;52.274;20.964;2022-08-19T14:17:42;7.30;;;3.90;;
53753;SDS011;39667;52.274;20.964;2022-08-19T14:20:13;5.90;;;3.80;;
53753;SDS011;39667;52.274;20.964;2022-08-19T14:22:44;9.00;;;4.10;;
53753;SDS011;39667;52.274;20.964;2022-08-19T14:25:13;11.80;;;4.00;;
53753;SDS011;39667;52.274;20.964;2022-08-19T14:27:45;10.80;;;4.40;;
53753;SDS011;39667;52.274;20.964;2022-08-19T14:30:15;10.90;;;4.20;;
53753;SDS011;39667;52.274;20.964;2022-08-19T14:32:44;9.10;;;4.50;;
53753;SDS011;39667;52.274;20.964;2022-08-19T14:35:11;11.00;;;4.50;;
53753;SDS011;39667;52.274;20.964;2022-08-19T14:37:41;6.70;;;4.10;;
53753;SDS011;39667;52.274;20.964;2022-08-19T14:40:11;8.10;;;4.10;;
53753;SDS011;39667;52.274;20.964;2022-08-19T14:42:42;6.70;;;3.60;;
53753;SDS011;39667;52.274;20.964;2022-08-19T14:45:10;7.40;;;4.10;;
53753;SDS011;39667;52.274;20.964;2022-08-19T14:47:38;6.20;;;4.20;;
53753;SDS011;39667;52.274;20.964;2022-08-19T14:50:07;5.80;;;3.70;;
53753;SDS011;39667;52.274;20.964;2022-08-19T14:52:43;6.50;;;3.60;;
53753;SDS011;39667;52.274;20.964;2022-08-19T14:55:11;7.30;;;3.80;;
53753;SDS011;39667;52.274;20.964;2022-08-19T14:57:37;10.00;;;5.40;;
53753;SDS011;39667;52.274;20.964;2022-08-19T15:00:07;11.40;;;4.00;;
53753;SDS011;39667;52.274;20.964;2022-08-19T15:02:39;7.50;;;4.00;;